Time;durP1;ratioP1;P1;durP2;ratioP2;P2;SDS_P1;SDS_P2;PMS_P1;PMS_P2;Temp;Humidity;BMP_temperature;BMP_pressure;BME280_temperature;BME280_humidity;BME280_pressure;Samples;Min_cycle;Max_cycle;Signal;HPM_P1;HPM_P2
2022/07/02 00:01:37;;;;;;;8.70;5.90;;;;;;;20.91;84.71;100488.50;104365;1277;95227;-76
2022/07/02 00:04:06;;;;;;;9.90;5.90;;;;;;;20.96;84.73;100487.09;104247;1275;139921;-76
2022/07/02 00:06:37;;;;;;;9.60;5.20;;;;;;;20.99;85.12;100494.81;104373;1276;109744;-74
2022/07/02 00:09:05;;;;;;;8.30;5.50;;;;;;;20.94;85.54;100489.42;104256;1277;139118;-76
2022/07/02 00:11:35;;;;;;;10.50;6.60;;;;;;;20.87;86.06;100506.05;104318;1277;108938;-76
2022/07/02 00:14:04;;;;;;;10.20;6.40;;;;;;;20.86;86.81;100516.67;104386;1277;95281;-76
2022/07/02 00:16:32;;;;;;;10.40;6.70;;;;;;;20.91;87.05;100517.60;104285;1275;138997;-74
2022/07/02 00:19:00;;;;;;;12.50;7.10;;;;;;;20.99;86.90;100520.86;104321;1276;109673;-76
2022/07/02 00:21:28;;;;;;;9.70;6.80;;;;;;;21.01;86.54;100521.92;104338;1277;139746;-77
2022/07/02 00:23:56;;;;;;;12.00;6.30;;;;;;;21.01;86.35;100519.58;104399;1277;108181;-76
2022/07/02 00:26:31;;;;;;;10.80;6.90;;;;;;;21.00;86.77;100523.10;104367;1276;95803;-76
2022/07/02 00:29:22;;;;;;;12.30;7.00;;;;;;;20.98;86.33;100518.52;104319;1277;95236;-76
2022/07/02 00:31:51;;;;;;;11.90;6.80;;;;;;;21.04;86.25;100507.30;104185;1277;107836;-76
2022/07/02 00:34:23;;;;;;;10.40;6.10;;;;;;;21.12;85.97;100491.77;104310;1276;139596;-76
2022/07/02 00:36:51;;;;;;;10.30;6.00;;;;;;;21.17;85.15;100460.39;104493;1277;108872;-76
2022/07/02 00:39:18;;;;;;;11.50;6.70;;;;;;;21.20;85.10;100437.91;104323;1275;140147;-76
2022/07/02 00:41:48;;;;;;;8.70;5.60;;;;;;;21.21;85.12;100430.80;104303;1277;95221;-74
2022/07/02 00:44:17;;;;;;;9.40;6.70;;;;;;;21.20;84.94;100435.59;104563;1276;109539;-77
2022/07/02 00:46:46;;;;;;;12.70;7.00;;;;;;;21.20;84.94;100443.39;104239;1277;139414;-76
2022/07/02 00:49:17;;;;;;;9.70;6.30;;;;;;;21.19;84.99;100453.16;104424;1275;108829;-76
2022/07/02 00:51:45;;;;;;;12.20;7.60;;;;;;;21.18;84.70;100461.88;104320;1275;138940;-77
2022/07/02 00:54:13;;;;;;;10.50;7.00;;;;;;;21.18;85.12;100487.20;104362;1276;95569;-75
2022/07/02 00:56:41;;;;;;;10.60;7.10;;;;;;;21.11;85.46;100508.77;104327;1277;139163;-76
2022/07/02 00:59:09;;;;;;;9.70;6.60;;;;;;;21.01;85.67;100527.77;104411;1277;99399;-75
2022/07/02 01:01:37;;;;;;;10.40;6.70;;;;;;;20.88;86.45;100539.05;104407;1277;108762;-76
2022/07/02 01:04:06;;;;;;;11.50;8.30;;;;;;;20.79;87.07;100541.30;104195;1277;138438;-77
2022/07/02 01:06:36;;;;;;;11.20;7.50;;;;;;;20.77;87.61;100529.71;104523;1274;95129;-77
2022/07/02 01:11:53;;;;;;;14.50;9.10;;;;;;;20.87;88.08;100520.55;104376;1274;99490;-76
2022/07/02 01:14:22;;;;;;;14.80;9.30;;;;;;;20.94;87.78;100504.59;104792;1275;108251;-77
2022/07/02 01:16:50;;;;;;;13.10;9.10;;;;;;;21.04;87.58;100494.48;104445;1275;139355;-77
2022/07/02 01:19:21;;;;;;;14.50;10.00;;;;;;;21.06;87.50;100512.21;104344;1277;95208;-77
2022/07/02 01:22:14;;;;;;;12.30;7.60;;;;;;;21.01;88.05;100524.81;104526;1277;139070;-77
2022/07/02 01:24:44;;;;;;;14.00;10.90;;;;;;;20.98;88.23;100523.27;104380;1275;99406;-76
2022/07/02 01:27:12;;;;;;;13.10;10.00;;;;;;;21.05;88.58;100518.59;104356;1275;139633;-76
2022/07/02 01:29:40;;;;;;;14.10;9.90;;;;;;;21.17;88.22;100522.66;104345;1277;95275;-76
2022/07/02 01:32:10;;;;;;;15.00;10.90;;;;;;;21.25;87.99;100514.75;104362;1277;95135;-75
2022/07/02 01:34:46;;;;;;;15.30;11.20;;;;;;;21.28;87.77;100519.41;104227;1277;139286;-76
2022/07/02 01:37:15;;;;;;;;;;;;;;;21.29;88.23;100528.16;104542;1277;99443;-76
2022/07/02 01:39:45;;;;;;;20.30;12.30;;;;;;;21.32;88.01;100520.16;104277;1275;125227;-76
2022/07/02 01:42:14;;;;;;;17.20;13.30;;;;;;;21.38;87.82;100516.14;104394;1274;95396;-76
2022/07/02 01:44:44;;;;;;;16.70;12.40;;;;;;;21.44;87.76;100514.11;104290;1275;139383;-76
2022/07/02 01:47:12;;;;;;;;;;;;;;;21.47;87.50;100510.30;104326;1277;109757;-77
2022/07/02 01:49:41;;;;;;;17.70;11.60;;;;;;;21.43;87.29;100511.11;104332;1277;99373;-77
2022/07/02 01:52:09;;;;;;;16.70;11.70;;;;;;;21.41;87.22;100520.45;104293;1277;139700;-74
2022/07/02 01:54:37;;;;;;;19.50;12.50;;;;;;;21.40;87.55;100550.38;104322;1277;95211;-75
2022/07/02 01:57:06;;;;;;;16.40;12.50;;;;;;;21.44;87.64;100558.56;104304;1275;139354;-76
2022/07/02 01:59:34;;;;;;;15.90;11.60;;;;;;;21.47;87.29;100560.89;104403;1275;111264;-76
2022/07/02 02:02:04;;;;;;;18.80;13.70;;;;;;;21.46;87.00;100561.49;104229;1277;99435;-77
2022/07/02 02:04:32;;;;;;;15.80;12.10;;;;;;;21.46;87.31;100576.30;104211;1277;139359;-76
2022/07/02 02:07:01;;;;;;;14.90;11.50;;;;;;;21.44;87.15;100585.98;104425;1274;95194;-76
2022/07/02 02:09:29;;;;;;;18.40;11.80;;;;;;;21.41;87.51;100596.73;104214;1278;139661;-76
2022/07/02 02:11:58;;;;;;;15.50;11.60;;;;;;;21.35;87.44;100594.89;104331;1277;110086;-75
2022/07/02 02:14:26;;;;;;;18.00;12.30;;;;;;;21.36;87.51;100592.51;104311;1277;99413;-76
2022/07/02 02:16:54;;;;;;;19.60;12.60;;;;;;;21.44;87.54;100587.06;104402;1274;108778;-77
2022/07/02 02:19:22;;;;;;;16.30;11.50;;;;;;;21.51;87.13;100579.96;104339;1277;95315;-76
2022/07/02 02:21:50;;;;;;;14.60;11.30;;;;;;;21.46;86.99;100570.50;104295;1274;139695;-76
2022/07/02 02:24:17;;;;;;;17.10;10.80;;;;;;;21.40;87.35;100577.44;104323;1277;109756;-76
2022/07/02 02:26:45;;;;;;;15.70;11.60;;;;;;;21.35;87.10;100584.77;104243;1276;139561;-75
2022/07/02 02:29:13;;;;;;;16.30;11.70;;;;;;;21.31;87.61;100585.27;104374;1277;108796;-76
2022/07/02 02:31:41;;;;;;;17.50;12.10;;;;;;;21.34;87.47;100579.61;104358;1276;95163;-76
2022/07/02 02:34:09;;;;;;;16.10;11.50;;;;;;;21.33;87.14;100579.19;104305;1275;139859;-76
2022/07/02 02:36:37;;;;;;;17.70;11.60;;;;;;;21.30;87.22;100591.46;104321;1277;108743;-76
2022/07/02 02:39:05;;;;;;;15.80;11.80;;;;;;;21.27;87.46;100596.79;104237;1277;140124;-76
2022/07/02 02:41:33;;;;;;;15.50;10.80;;;;;;;21.26;87.34;100596.43;104518;1274;108776;-75
2022/07/02 02:44:01;;;;;;;16.00;11.00;;;;;;;21.19;87.28;100598.50;104389;1277;95445;-75
2022/07/02 02:46:29;;;;;;;16.70;11.70;;;;;;;21.23;87.51;100597.20;104380;1277;139273;-76
2022/07/02 02:48:57;;;;;;;16.70;12.50;;;;;;;21.27;87.60;100594.97;104486;1277;109449;-75
2022/07/02 02:51:25;;;;;;;16.60;11.90;;;;;;;21.29;87.43;100590.83;104460;1278;139414;-75
2022/07/02 02:53:54;;;;;;;16.50;11.90;;;;;;;21.40;87.18;100585.77;104548;1277;108899;-75
2022/07/02 02:56:22;;;;;;;15.60;11.30;;;;;;;21.38;86.63;100581.57;104375;1278;95263;-76
2022/07/02 02:58:50;;;;;;;14.70;10.90;;;;;;;21.29;87.23;100570.98;104323;1277;139130;-77
2022/07/02 03:01:18;;;;;;;17.20;11.20;;;;;;;21.20;87.40;100555.67;104497;1277;109822;-75
2022/07/02 03:03:46;;;;;;;15.50;11.50;;;;;;;21.19;87.46;100546.73;104345;1278;139421;-75
2022/07/02 03:06:14;;;;;;;16.00;12.00;;;;;;;21.26;87.74;100544.77;104455;1277;108846;-75
2022/07/02 03:08:42;;;;;;;18.70;11.80;;;;;;;21.38;87.38;100530.44;104358;1278;140014;-76
2022/07/02 03:11:10;;;;;;;20.70;12.10;;;;;;;21.51;86.85;100519.08;104497;1275;95840;-76
2022/07/02 03:13:38;;;;;;;16.80;11.60;;;;;;;21.56;86.43;100517.48;104462;1277;109699;-75
2022/07/02 03:16:07;;;;;;;17.90;11.60;;;;;;;21.53;86.13;100515.71;104326;1278;139190;-75
2022/07/02 03:18:35;;;;;;;16.70;12.40;;;;;;;21.54;86.10;100523.92;104677;1277;108798;-75
2022/07/02 03:21:03;;;;;;;17.50;12.50;;;;;;;21.61;86.29;100542.61;104408;1274;139529;-76
2022/07/02 03:23:31;;;;;;;16.00;12.30;;;;;;;21.62;86.17;100554.83;104472;1277;96019;-76
2022/07/02 03:25:58;;;;;;;17.80;12.00;;;;;;;21.61;86.19;100559.25;104420;1277;109975;-75
2022/07/02 03:28:26;;;;;;;15.00;10.20;;;;;;;21.57;85.71;100553.04;104438;1274;139216;-75
2022/07/02 03:30:54;;;;;;;14.30;9.80;;;;;;;21.49;85.28;100540.65;104493;1274;107792;-77
2022/07/02 03:33:22;;;;;;;14.50;9.70;;;;;;;21.43;85.46;100544.52;104384;1277;139069;-75
2022/07/02 03:35:50;;;;;;;11.90;8.40;;;;;;;21.39;85.06;100552.23;104415;1277;95227;-75
2022/07/02 03:38:18;;;;;;;13.70;8.60;;;;;;;21.32;84.99;100557.93;104365;1275;109975;-75
2022/07/02 03:40:46;;;;;;;13.80;8.10;;;;;;;21.25;85.13;100562.40;104327;1277;139069;-77
2022/07/02 03:43:14;;;;;;;10.70;7.90;;;;;;;21.26;85.06;100580.38;104347;1277;109076;-77
2022/07/02 03:45:42;;;;;;;10.70;8.00;;;;;;;21.26;84.48;100594.11;104447;1274;139214;-75
2022/07/02 03:48:10;;;;;;;11.40;7.50;;;;;;;21.24;84.70;100601.50;104398;1277;95128;-77
2022/07/02 03:50:40;;;;;;;12.50;7.60;;;;;;;21.19;84.78;100604.66;104420;1274;139643;-75
2022/07/02 03:53:09;;;;;;;11.20;7.50;;;;;;;21.17;84.71;100621.77;104536;1275;99433;-76
2022/07/02 03:55:37;;;;;;;10.30;7.40;;;;;;;21.14;84.80;100624.91;104416;1277;109088;-75
2022/07/02 03:58:05;;;;;;;11.90;7.10;;;;;;;21.10;84.73;100630.41;104279;1276;139103;-75
2022/07/02 04:00:33;;;;;;;12.70;7.60;;;;;;;21.06;85.05;100634.46;104423;1277;95227;-76
2022/07/02 04:03:01;;;;;;;10.30;7.60;;;;;;;21.03;84.98;100629.56;104226;1277;139595;-75
2022/07/02 04:05:29;;;;;;;10.70;7.30;;;;;;;21.00;85.03;100623.78;104500;1274;99334;-76
2022/07/02 04:07:57;;;;;;;11.30;8.20;;;;;;;20.99;84.97;100615.79;104415;1277;106900;-74
2022/07/02 04:10:25;;;;;;;9.70;6.60;;;;;;;20.98;84.98;100614.55;104430;1274;139550;-75
2022/07/02 04:12:53;;;;;;;12.10;7.30;;;;;;;20.95;84.25;100621.98;104479;1277;95139;-75
2022/07/02 04:15:21;;;;;;;8.80;5.20;;;;;;;20.84;83.87;100632.62;104355;1277;139318;-76
2022/07/02 04:17:49;;;;;;;11.70;5.70;;;;;;;20.75;83.41;100635.92;104443;1277;99606;-75
2022/07/02 04:20:17;;;;;;;10.00;6.20;;;;;;;20.68;83.68;100636.02;104477;1277;109048;-74
2022/07/02 04:22:45;;;;;;;10.70;5.50;;;;;;;20.63;83.90;100634.01;104343;1277;138721;-77
2022/07/02 04:25:13;;;;;;;9.50;5.60;;;;;;;20.58;83.62;100631.75;104500;1277;95191;-76
2022/07/02 04:27:41;;;;;;;10.10;5.20;;;;;;;20.59;83.74;100615.83;104433;1274;138726;-77
2022/07/02 04:30:10;;;;;;;10.40;5.40;;;;;;;20.62;83.57;100614.52;104471;1277;99358;-76
2022/07/02 04:32:38;;;;;;;10.90;4.90;;;;;;;20.67;83.19;100625.04;104479;1274;139534;-75
2022/07/02 04:35:06;;;;;;;9.40;5.10;;;;;;;20.65;82.55;100632.55;104495;1274;95208;-75
2022/07/02 04:37:34;;;;;;;8.30;5.10;;;;;;;20.62;82.71;100643.27;104525;1274;95227;-76
2022/07/02 04:40:03;;;;;;;9.00;4.80;;;;;;;20.56;83.29;100639.09;104306;1276;138959;-75
2022/07/02 04:42:31;;;;;;;8.00;5.30;;;;;;;20.53;82.92;100639.66;104451;1275;98423;-76
2022/07/02 04:44:59;;;;;;;9.80;4.50;;;;;;;20.53;83.07;100645.61;104281;1277;139021;-75
2022/07/02 04:47:27;;;;;;;8.40;3.90;;;;;;;20.53;82.85;100651.95;104474;1277;95242;-76
2022/07/02 04:49:55;;;;;;;7.10;4.10;;;;;;;20.48;82.78;100663.21;104603;1274;95170;-76
2022/07/02 04:52:23;;;;;;;7.20;3.70;;;;;;;20.47;82.77;100665.48;104365;1277;138738;-75
2022/07/02 04:54:51;;;;;;;7.80;3.90;;;;;;;20.40;82.51;100671.70;104568;1274;99287;-73
2022/07/02 04:57:18;;;;;;;6.80;3.50;;;;;;;20.37;82.95;100677.83;104449;1274;139029;-75
2022/07/02 04:59:46;;;;;;;8.30;4.30;;;;;;;20.35;83.01;100679.40;104445;1277;95210;-77
2022/07/02 05:02:14;;;;;;;6.60;3.90;;;;;;;20.33;82.87;100684.95;104457;1277;95224;-74
2022/07/02 05:04:42;;;;;;;9.40;4.40;;;;;;;20.32;82.89;100686.08;104380;1274;138752;-76
2022/07/02 05:07:11;;;;;;;10.60;4.20;;;;;;;20.34;82.49;100690.06;104580;1274;99904;-75
2022/07/02 05:09:39;;;;;;;7.90;4.30;;;;;;;20.35;82.45;100691.81;103997;1277;504985;-73
2022/07/02 05:12:08;;;;;;;10.70;4.30;;;;;;;20.40;82.28;100691.17;104368;1277;95332;-74
2022/07/02 05:14:35;;;;;;;8.70;4.60;;;;;;;20.45;82.02;100694.11;104352;1278;139071;-74
2022/07/02 05:17:04;;;;;;;7.60;4.50;;;;;;;20.46;81.53;100702.48;104427;1277;109676;-74
2022/07/02 05:19:32;;;;;;;8.40;5.00;;;;;;;20.43;81.69;100704.85;104487;1277;99445;-74
2022/07/02 05:22:00;;;;;;;8.50;4.30;;;;;;;20.38;81.87;100709.67;104349;1277;138239;-75
2022/07/02 05:24:28;;;;;;;9.10;5.10;;;;;;;20.36;81.82;100711.44;104460;1277;95306;-73
2022/07/02 05:26:55;;;;;;;10.00;5.90;;;;;;;20.33;81.27;100707.44;104355;1277;138912;-74
2022/07/02 05:29:23;;;;;;;9.40;5.10;;;;;;;20.30;81.55;100713.06;104616;1274;107786;-75
2022/07/02 05:31:51;;;;;;;8.90;5.80;;;;;;;20.30;81.58;100715.96;104548;1277;99731;-74
2022/07/02 05:34:19;;;;;;;11.60;5.80;;;;;;;20.29;81.27;100714.23;104361;1277;138841;-77
2022/07/02 05:36:50;;;;;;;7.90;5.10;;;;;;;20.26;81.35;100720.49;104466;1275;95194;-75
2022/07/02 05:39:18;;;;;;;9.80;5.70;;;;;;;20.24;81.17;100726.41;104362;1277;138878;-76
2022/07/02 05:41:46;;;;;;;8.70;4.90;;;;;;;20.24;81.76;100732.41;104476;1276;108685;-75
2022/07/02 05:44:14;;;;;;;9.90;6.00;;;;;;;20.20;81.75;100730.05;104570;1274;97831;-77
2022/07/02 05:46:42;;;;;;;10.50;6.20;;;;;;;20.17;82.23;100730.27;104351;1277;138632;-75
2022/07/02 05:49:10;;;;;;;9.90;6.10;;;;;;;20.16;82.42;100732.33;104441;1276;95857;-75
2022/07/02 05:51:37;;;;;;;11.70;6.80;;;;;;;20.15;82.71;100733.63;104352;1277;139842;-74
2022/07/02 05:54:06;;;;;;;11.90;6.00;;;;;;;20.12;82.99;100737.99;104529;1277;109844;-74
2022/07/02 05:56:34;;;;;;;8.80;5.60;;;;;;;20.08;83.12;100740.56;104397;1276;139692;-74
2022/07/02 05:59:02;;;;;;;10.90;5.40;;;;;;;20.09;83.22;100742.14;104477;1277;108823;-76
2022/07/02 06:01:30;;;;;;;10.20;4.90;;;;;;;20.11;83.79;100740.71;104457;1277;95692;-75
2022/07/02 06:03:57;;;;;;;9.40;5.80;;;;;;;20.10;83.50;100741.14;104368;1274;138915;-75
2022/07/02 06:09:13;;;;;;;7.30;3.80;;;;;;;20.06;83.70;100731.49;104377;1274;138781;-75
2022/07/02 06:11:41;;;;;;;6.00;2.90;;;;;;;20.03;83.78;100736.14;104398;1276;106724;-75
2022/07/02 06:14:09;;;;;;;4.50;2.30;;;;;;;19.99;83.99;100741.29;104542;1274;95229;-76
2022/07/02 06:16:39;;;;;;;4.60;2.20;;;;;;;19.95;83.94;100740.64;104368;1277;138593;-76
2022/07/02 06:19:07;;;;;;;7.90;2.70;;;;;;;19.96;83.93;100737.15;104526;1274;109748;-69
2022/07/02 06:21:35;;;;;;;7.00;2.70;;;;;;;20.01;83.99;100740.06;103967;1276;139140;-75
2022/07/02 06:24:03;;;;;;;7.90;3.00;;;;;;;20.08;83.68;100743.83;104511;1274;108821;-76
2022/07/02 06:26:31;;;;;;;6.20;2.10;;;;;;;20.10;83.78;100750.90;104280;1276;139797;-74
2022/07/02 06:28:59;;;;;;;5.20;2.30;;;;;;;20.07;83.38;100753.41;104421;1277;95844;-74
2022/07/02 06:31:27;;;;;;;7.10;2.10;;;;;;;20.02;83.43;100764.55;104505;1274;109511;-75
2022/07/02 06:33:55;;;;;;;4.30;2.10;;;;;;;19.99;83.44;100769.92;104338;1274;139227;-75
2022/07/02 06:36:24;;;;;;;5.30;2.00;;;;;;;20.01;83.67;100778.63;104422;1277;108853;-74
2022/07/02 06:38:52;;;;;;;4.90;2.00;;;;;;;20.03;83.77;100789.30;104378;1274;139678;-74
2022/07/02 06:44:07;;;;;;;3.90;1.80;;;;;;;20.08;83.47;100794.45;104468;1276;109845;-76
2022/07/02 06:46:36;;;;;;;5.50;1.90;;;;;;;20.08;83.47;100796.59;104424;1277;139374;-72
2022/07/02 06:49:04;;;;;;;4.50;1.80;;;;;;;20.07;83.19;100804.77;104431;1274;109301;-75
2022/07/02 06:51:32;;;;;;;4.20;1.60;;;;;;;20.07;82.97;100808.21;104325;1277;139788;-75
2022/07/02 06:54:00;;;;;;;4.10;1.90;;;;;;;20.06;83.22;100810.25;104633;1274;95237;-75
2022/07/02 06:56:32;;;;;;;7.00;2.00;;;;;;;20.08;83.47;100813.05;104447;1274;138834;-71
2022/07/02 06:59:00;;;;;;;5.40;2.50;;;;;;;20.05;83.48;100817.13;104857;1274;99329;-75
2022/07/02 07:01:27;;;;;;;5.60;2.00;;;;;;;20.04;83.36;100817.75;104489;1277;108775;-73
2022/07/02 07:03:55;;;;;;;6.20;2.50;;;;;;;20.00;82.88;100822.52;104419;1274;138938;-75
2022/07/02 07:07:09;;;;;;;6.90;2.40;;;;;;;19.95;83.11;100828.34;104515;1277;95246;-75
2022/07/02 07:09:15;;;;;;;5.90;2.60;;;;;;;19.96;82.99;100831.38;104386;1277;139980;-76
2022/07/02 07:11:43;;;;;;;6.30;3.10;;;;;;;19.96;82.76;100832.10;104615;1274;99389;-75
2022/07/02 07:14:11;;;;;;;6.30;3.00;;;;;;;19.97;82.75;100843.58;104553;1277;108432;-76
2022/07/02 07:16:39;;;;;;;5.70;2.70;;;;;;;19.98;83.02;100848.03;104447;1274;139420;-74
2022/07/02 07:19:07;;;;;;;5.10;2.60;;;;;;;19.94;82.75;100854.92;104501;1277;95114;-74
2022/07/02 07:21:43;;;;;;;8.30;3.00;;;;;;;19.87;82.77;100860.34;104446;1275;139069;-74
2022/07/02 07:24:10;;;;;;;6.30;3.00;;;;;;;19.87;82.95;100864.52;104698;1274;99294;-75
2022/07/02 07:26:39;;;;;;;7.80;3.60;;;;;;;19.87;83.22;100865.08;104535;1274;139449;-76
2022/07/02 07:29:07;;;;;;;6.70;3.50;;;;;;;19.89;82.78;100866.94;104609;1272;95336;-74
2022/07/02 07:31:36;;;;;;;6.40;3.50;;;;;;;19.92;83.04;100872.20;104541;1277;95208;-74
2022/07/02 07:34:05;;;;;;;;;;;;;;;19.93;83.00;100874.11;104613;1274;138835;-75
2022/07/02 07:36:34;;;;;;;5.90;2.80;;;;;;;19.90;83.19;100873.40;104541;1275;99117;-73
2022/07/02 07:39:03;;;;;;;6.70;2.60;;;;;;;19.83;82.73;100875.21;104509;1276;138745;-74
2022/07/02 07:41:32;;;;;;;5.10;2.30;;;;;;;19.77;83.06;100877.31;104549;1277;95257;-74
2022/07/02 07:44:01;;;;;;;5.30;2.00;;;;;;;19.75;83.03;100881.41;104483;1277;96622;-72
2022/07/02 07:46:29;;;;;;;5.40;2.20;;;;;;;19.70;83.22;100880.19;104338;1277;139200;-74
2022/07/02 07:49:00;;;;;;;5.80;3.10;;;;;;;19.68;83.27;100881.76;104516;1274;99846;-73
2022/07/02 07:51:28;;;;;;;5.10;2.60;;;;;;;19.66;83.05;100889.84;104394;1274;139111;-74
2022/07/02 07:53:56;;;;;;;7.00;2.90;;;;;;;19.63;83.17;100892.36;104497;1277;95256;-73
2022/07/02 07:56:24;;;;;;;7.20;2.80;;;;;;;19.64;83.48;100899.67;104431;1276;95232;-73
2022/07/02 07:58:52;;;;;;;7.60;2.30;;;;;;;19.67;83.52;100899.67;104538;1275;109694;-75
2022/07/02 08:01:20;;;;;;;6.00;3.20;;;;;;;19.67;83.31;100906.89;104479;1274;99380;-73
2022/07/02 08:03:48;;;;;;;6.60;2.90;;;;;;;19.65;82.80;100911.52;104422;1274;138207;-74
2022/07/02 08:06:16;;;;;;;8.90;3.90;;;;;;;19.64;82.94;100913.73;104460;1277;95249;-73
2022/07/02 08:08:44;;;;;;;7.20;2.90;;;;;;;19.65;83.03;100919.21;104396;1275;138936;-74
2022/07/02 08:11:12;;;;;;;7.10;2.90;;;;;;;19.70;83.19;100926.17;104425;1274;109704;-74
2022/07/02 08:13:40;;;;;;;8.40;3.90;;;;;;;19.72;83.14;100927.67;104399;1276;99305;-73
2022/07/02 08:16:08;;;;;;;8.90;4.20;;;;;;;19.69;82.99;100930.02;104363;1277;138381;-71
2022/07/02 08:18:36;;;;;;;7.10;4.40;;;;;;;19.68;83.23;100925.58;104471;1276;95957;-72
2022/07/02 08:21:04;;;;;;;8.50;4.10;;;;;;;19.64;83.23;100922.34;104405;1277;138329;-67
2022/07/02 08:23:32;;;;;;;8.50;4.30;;;;;;;19.68;83.20;100923.77;104461;1277;109724;-71
2022/07/02 08:25:59;;;;;;;8.80;4.80;;;;;;;19.75;83.44;100924.27;104567;1276;99369;-72
2022/07/02 08:28:27;;;;;;;8.10;4.40;;;;;;;19.81;83.20;100924.67;104321;1277;138899;-70
2022/07/02 08:30:55;;;;;;;8.30;4.50;;;;;;;19.85;82.46;100928.10;104441;1275;96127;-71
2022/07/02 08:33:23;;;;;;;9.10;4.50;;;;;;;19.87;81.79;100930.98;104308;1274;139276;-70
2022/07/02 08:35:51;;;;;;;8.20;4.70;;;;;;;19.89;81.90;100937.19;104443;1277;110100;-70
2022/07/02 08:38:19;;;;;;;6.90;3.40;;;;;;;19.90;81.56;100932.83;104480;1274;99320;-73
2022/07/02 08:40:48;;;;;;;7.50;4.60;;;;;;;19.94;81.72;100935.69;104365;1274;138263;-67
2022/07/02 08:43:17;;;;;;;10.50;5.30;;;;;;;19.93;81.52;100938.98;103438;1274;97186;-67
2022/07/02 08:45:46;;;;;;;8.80;4.90;;;;;;;19.88;81.24;100942.52;103640;1274;137584;-65
2022/07/02 08:48:14;;;;;;;8.10;4.40;;;;;;;19.82;81.13;100945.33;103770;1274;109685;-66
2022/07/02 08:50:44;;;;;;;11.40;6.70;;;;;;;19.78;80.90;100943.02;103692;1277;139275;-66
2022/07/02 08:53:12;;;;;;;9.10;4.60;;;;;;;19.78;81.06;100935.45;103969;1274;107843;-67
2022/07/02 08:55:41;;;;;;;8.20;4.80;;;;;;;19.81;81.18;100932.23;103618;1274;96840;-65
2022/07/02 08:58:11;;;;;;;7.10;4.00;;;;;;;19.84;80.88;100933.52;104994;1274;138917;-66
2022/07/02 09:00:40;;;;;;;;;;;;;;;19.85;80.83;100934.75;103855;1274;109709;-69
2022/07/02 09:03:09;;;;;;;8.30;4.30;;;;;;;19.87;81.19;100938.79;104494;1274;125686;-69
2022/07/02 09:05:39;;;;;;;6.60;4.10;;;;;;;19.92;80.90;100948.77;103749;1275;109318;-67
2022/07/02 09:08:11;;;;;;;7.20;4.20;;;;;;;19.94;80.59;100954.95;103775;1274;95794;-67
2022/07/02 09:10:40;;;;;;;6.70;4.30;;;;;;;20.00;80.48;100955.52;103401;1274;139318;-66
2022/07/02 09:13:11;;;;;;;8.20;5.10;;;;;;;20.05;80.08;100957.02;103522;1274;108673;-66
2022/07/02 09:15:40;;;;;;;6.80;4.50;;;;;;;20.05;80.58;100957.38;104175;1274;138314;-66
2022/07/02 09:18:08;;;;;;;8.00;4.80;;;;;;;20.02;80.28;100959.56;103662;1276;108753;-67
2022/07/02 09:20:36;;;;;;;6.30;4.00;;;;;;;19.99;80.13;100962.59;103557;1274;139189;-67
2022/07/02 09:23:09;;;;;;;5.80;3.80;;;;;;;19.97;80.06;100964.54;103475;1277;96198;-69
2022/07/02 09:25:40;;;;;;;6.80;4.10;;;;;;;19.94;80.20;100961.48;104219;1274;109818;-66
2022/07/02 09:28:14;;;;;;;6.10;4.10;;;;;;;19.97;80.49;100962.00;103613;1274;139407;-68
2022/07/02 09:30:43;;;;;;;5.90;3.50;;;;;;;20.06;79.98;100962.75;104095;1274;108919;-67
2022/07/02 09:33:35;;;;;;;5.50;3.50;;;;;;;20.11;79.63;100965.33;103802;1274;142485;-67
2022/07/02 09:36:12;;;;;;;6.40;3.60;;;;;;;20.16;79.91;100962.71;103781;1274;95629;-68
2022/07/02 09:38:45;;;;;;;6.30;3.90;;;;;;;20.20;79.86;100968.96;103667;1274;139167;-66
2022/07/02 09:41:18;;;;;;;5.90;3.60;;;;;;;20.23;79.63;100973.52;103836;1274;99289;-68
2022/07/02 09:43:59;;;;;;;5.30;3.20;;;;;;;20.25;79.25;100973.36;103657;1274;108753;-67
2022/07/02 09:46:29;;;;;;;5.00;2.40;;;;;;;20.24;78.88;100970.73;103639;1274;138337;-67
2022/07/02 09:49:09;;;;;;;4.90;2.40;;;;;;;20.26;78.58;100969.93;103594;1275;95226;-67
2022/07/02 09:51:48;;;;;;;4.90;2.00;;;;;;;20.27;78.14;100968.59;104172;1274;138828;-68
2022/07/02 09:54:21;;;;;;;4.70;2.00;;;;;;;20.30;78.16;100966.98;103685;1274;99414;-67
2022/07/02 09:56:55;;;;;;;3.40;1.20;;;;;;;20.34;77.79;100960.42;104744;1274;139121;-67
2022/07/02 09:59:24;;;;;;;3.70;1.50;;;;;;;20.42;77.89;100966.08;103625;1274;96133;-67
2022/07/02 10:01:52;;;;;;;4.10;1.70;;;;;;;20.49;77.33;100964.20;103737;1274;95695;-68
2022/07/02 10:04:33;;;;;;;4.80;1.90;;;;;;;20.49;76.93;100971.47;103679;1274;138197;-70
2022/07/02 10:07:01;;;;;;;6.20;2.60;;;;;;;20.43;77.30;100973.46;103674;1274;99650;-67
2022/07/02 10:09:29;;;;;;;4.70;1.80;;;;;;;20.39;77.31;100977.44;103511;1277;139810;-67
2022/07/02 10:11:59;;;;;;;5.80;1.70;;;;;;;20.37;77.50;100980.27;103626;1277;95845;-67
2022/07/02 10:14:32;;;;;;;3.80;1.50;;;;;;;20.37;77.57;100983.14;103450;1274;139079;-69
2022/07/02 10:17:01;;;;;;;3.60;1.40;;;;;;;20.35;77.34;100986.31;103348;1274;109711;-70
2022/07/02 10:19:31;;;;;;;3.10;1.40;;;;;;;20.32;77.25;100983.61;103930;1274;99458;-68
2022/07/02 10:22:02;;;;;;;3.50;1.40;;;;;;;20.34;77.28;100987.86;103415;1274;138229;-67
2022/07/02 10:24:31;;;;;;;4.50;1.80;;;;;;;20.35;77.48;100987.41;103607;1277;96198;-69
2022/07/02 10:27:01;;;;;;;4.40;2.00;;;;;;;20.34;77.58;100987.13;103713;1274;138324;-68
2022/07/02 10:29:30;;;;;;;4.00;1.70;;;;;;;20.27;77.35;100994.02;103588;1274;109734;-68
2022/07/02 10:32:22;;;;;;;4.40;1.50;;;;;;;20.15;77.54;100997.42;103915;1274;99441;-67
2022/07/02 10:35:10;;;;;;;3.90;1.50;;;;;;;20.06;77.53;101000.62;103372;1274;138574;-67
2022/07/02 10:37:39;;;;;;;5.00;1.80;;;;;;;20.05;77.54;100996.52;103712;1274;95272;-68
2022/07/02 10:40:08;;;;;;;4.30;2.00;;;;;;;20.08;77.28;101000.48;103914;1274;138745;-67
2022/07/02 10:42:41;;;;;;;5.20;2.00;;;;;;;20.12;76.94;100997.03;104563;1274;110854;-67
2022/07/02 10:45:14;;;;;;;5.00;1.60;;;;;;;20.13;76.53;101006.18;103569;1277;138593;-68
2022/07/02 10:47:53;;;;;;;4.10;1.50;;;;;;;20.08;76.27;101009.30;103730;1274;109000;-71
2022/07/02 10:50:39;;;;;;;5.00;1.40;;;;;;;20.12;76.48;101012.36;104426;1272;95379;-73
2022/07/02 10:53:18;;;;;;;4.40;1.10;;;;;;;20.17;75.62;101008.63;104580;1275;95536;-74
2022/07/02 10:55:55;;;;;;;3.40;1.40;;;;;;;20.26;75.99;101004.35;104473;1274;109687;-73
2022/07/02 10:58:28;;;;;;;3.80;1.20;;;;;;;20.41;74.87;101004.02;104441;1274;138601;-74
2022/07/02 11:01:07;;;;;;;3.30;1.10;;;;;;;20.47;75.42;101002.42;104515;1274;107732;-74
2022/07/02 11:03:35;;;;;;;5.30;1.40;;;;;;;20.51;74.61;101005.26;104464;1275;138465;-75
2022/07/02 11:06:19;;;;;;;5.10;1.50;;;;;;;20.57;74.47;101006.15;104485;1276;95172;-74
2022/07/02 11:08:52;;;;;;;3.50;1.10;;;;;;;20.66;74.16;101008.50;104367;1276;139038;-73
2022/07/02 11:11:22;;;;;;;3.90;1.20;;;;;;;20.73;73.58;101006.34;104388;1276;99415;-73
2022/07/02 11:13:55;;;;;;;4.20;1.30;;;;;;;20.78;73.33;101001.90;104444;1274;108806;-74
2022/07/02 11:16:29;;;;;;;5.90;1.60;;;;;;;20.79;72.66;101008.34;104530;1274;138341;-75
2022/07/02 11:19:00;;;;;;;4.70;1.30;;;;;;;20.79;72.65;101011.42;104444;1277;95230;-74
2022/07/02 11:21:29;;;;;;;6.00;1.50;;;;;;;20.69;72.22;101012.55;104479;1274;140796;-72
2022/07/02 11:23:57;;;;;;;5.20;1.60;;;;;;;20.62;72.39;101011.83;104550;1274;99793;-73
2022/07/02 11:26:28;;;;;;;3.40;1.10;;;;;;;20.61;73.10;101012.60;104540;1274;108404;-70
2022/07/02 11:29:02;;;;;;;4.90;1.40;;;;;;;20.63;72.68;101012.65;104549;1276;96943;-75